Time;durP1;ratioP1;P1;durP2;ratioP2;P2;SDS_P1;SDS_P2;PMS_P1;PMS_P2;Temp;Humidity;BMP_temperature;BMP_pressure;BME280_temperature;BME280_humidity;BME280_pressure;Samples;Min_cycle;Max_cycle;Signal;HPM_P1;HPM_P2
2023/03/11 00:00:39;;;;;;;9.00;4.23;;;3.30;99.90;;;;;;5031680;28;20209;-89
2023/03/11 00:03:07;;;;;;;8.50;3.67;;;3.10;99.90;;;;;;5020558;28;20182;-89
2023/03/11 00:05:38;;;;;;;6.60;2.83;;;3.00;99.90;;;;;;5017116;28;20174;-88
2023/03/11 00:08:06;;;;;;;8.37;3.30;;;3.00;99.90;;;;;;5018335;28;20173;-90
2023/03/11 00:10:38;;;;;;;8.30;2.93;;;3.00;99.90;;;;;;5023552;28;20185;-89
2023/03/11 00:13:13;;;;;;;6.03;2.97;;;3.10;99.90;;;;;;5021714;28;20650;-89
2023/03/11 00:15:42;;;;;;;5.87;2.70;;;2.90;99.90;;;;;;5016216;28;20208;-89
2023/03/11 00:18:14;;;;;;;7.37;3.10;;;2.90;99.90;;;;;;5019240;28;20173;-92
2023/03/11 00:20:42;;;;;;;9.27;3.23;;;3.10;99.90;;;;;;5019789;28;20166;-90
2023/03/11 00:23:11;;;;;;;10.27;3.17;;;3.00;99.90;;;;;;5015751;28;20182;-89
2023/03/11 00:25:38;;;;;;;6.30;2.80;;;3.00;99.90;;;;;;5015732;28;20189;-90
2023/03/11 00:28:09;;;;;;;5.70;2.60;;;3.00;99.90;;;;;;5015579;28;20548;-89
2023/03/11 00:30:36;;;;;;;5.83;2.67;;;3.00;99.90;;;;;;5014797;28;20178;-89
2023/03/11 00:33:03;;;;;;;6.20;2.53;;;3.00;99.90;;;;;;5014955;28;20185;-88
2023/03/11 00:35:31;;;;;;;7.73;2.90;;;3.00;99.90;;;;;;5015367;28;20266;-89
2023/03/11 00:37:59;;;;;;;5.93;2.87;;;2.90;99.90;;;;;;5014971;28;20378;-90
2023/03/11 00:40:28;;;;;;;6.73;2.43;;;2.90;99.90;;;;;;5015246;28;20174;-89
2023/03/11 00:42:54;;;;;;;5.63;2.67;;;2.80;99.90;;;;;;5015126;28;20186;-89
2023/03/11 00:45:20;;;;;;;4.23;2.47;;;2.80;99.90;;;;;;5018468;28;20192;-89
2023/03/11 00:47:46;;;;;;;5.23;2.57;;;2.70;99.90;;;;;;5026195;28;20171;-88
2023/03/11 00:50:18;;;;;;;6.83;2.53;;;2.70;99.90;;;;;;5021254;28;20182;-88
2023/03/11 00:52:46;;;;;;;5.53;2.37;;;2.90;99.90;;;;;;5025397;28;20202;-91
2023/03/11 00:55:14;;;;;;;7.17;2.60;;;2.90;99.90;;;;;;5015984;28;20744;-90
2023/03/11 00:57:41;;;;;;;6.17;2.53;;;2.90;99.90;;;;;;5014253;28;20189;-90
2023/03/11 01:00:10;;;;;;;7.90;2.53;;;2.90;99.90;;;;;;5014294;28;20297;-90
2023/03/11 01:02:37;;;;;;;9.97;2.50;;;2.90;99.90;;;;;;5016855;28;20657;-91
2023/03/11 01:05:04;;;;;;;8.93;2.87;;;3.00;99.90;;;;;;5026874;28;20320;-90
2023/03/11 01:07:30;;;;;;;8.17;2.90;;;3.00;99.90;;;;;;5014765;28;20205;-90
2023/03/11 01:09:57;;;;;;;7.83;2.87;;;2.80;99.90;;;;;;5015527;28;20177;-88
2023/03/11 01:12:23;;;;;;;9.40;2.90;;;2.70;99.90;;;;;;5014044;28;20265;-88
2023/03/11 01:14:48;;;;;;;5.10;2.53;;;2.70;99.90;;;;;;5014248;28;20206;-89
2023/03/11 01:17:14;;;;;;;5.00;3.17;;;2.70;99.90;;;;;;5014663;28;20641;-89
2023/03/11 01:19:40;;;;;;;8.93;3.00;;;2.70;99.90;;;;;;5014435;28;20649;-90
2023/03/11 01:22:06;;;;;;;6.77;3.30;;;2.80;99.90;;;;;;5014353;28;20229;-89
2023/03/11 01:24:32;;;;;;;8.00;4.10;;;2.80;99.90;;;;;;5014543;28;20170;-90
2023/03/11 01:26:59;;;;;;;8.00;3.30;;;2.80;99.90;;;;;;5014543;28;20228;-90
2023/03/11 01:29:25;;;;;;;8.23;3.57;;;2.60;99.90;;;;;;5014794;28;20580;-88
2023/03/11 01:31:50;;;;;;;7.83;3.20;;;2.60;99.90;;;;;;5014510;28;20182;-88
2023/03/11 01:34:16;;;;;;;7.50;3.30;;;2.60;99.90;;;;;;5015392;28;20646;-87
2023/03/11 01:36:42;;;;;;;8.90;3.83;;;2.50;99.90;;;;;;5015332;28;20206;-88
2023/03/11 01:39:07;;;;;;;10.07;4.40;;;2.60;99.90;;;;;;5014667;28;20190;-87
2023/03/11 01:41:34;;;;;;;7.20;4.20;;;2.60;99.90;;;;;;5015247;28;20183;-89
2023/03/11 01:44:03;;;;;;;8.47;3.90;;;2.70;99.90;;;;;;5023161;28;20170;-88
2023/03/11 01:46:52;;;;;;;5.80;3.33;;;2.70;99.90;;;;;;5026690;28;20170;-88
2023/03/11 01:49:20;;;;;;;11.53;4.27;;;2.70;99.90;;;;;;5021154;28;20190;-89
2023/03/11 01:51:50;;;;;;;8.67;3.50;;;2.90;99.90;;;;;;5014808;28;20313;-89
2023/03/11 01:54:24;;;;;;;12.53;4.37;;;2.80;99.90;;;;;;5014377;28;20642;-89
2023/03/11 01:56:51;;;;;;;11.33;4.00;;;3.00;99.90;;;;;;5014580;28;20217;-89
2023/03/11 01:59:27;;;;;;;9.50;3.80;;;3.00;99.90;;;;;;5013652;28;20232;-90
2023/03/11 02:02:19;;;;;;;8.00;3.47;;;2.90;99.90;;;;;;5013925;28;20703;-90
2023/03/11 02:04:45;;;;;;;10.30;3.63;;;2.90;99.90;;;;;;5015676;28;20252;-87
2023/03/11 02:07:13;;;;;;;7.80;3.27;;;2.80;99.90;;;;;;5035893;28;20167;-89
2023/03/11 02:09:38;;;;;;;9.07;4.13;;;2.60;99.90;;;;;;5035031;28;20181;-87
2023/03/11 02:12:06;;;;;;;8.33;3.40;;;2.60;99.90;;;;;;5037104;28;20182;-91
2023/03/11 02:14:33;;;;;;;10.97;3.77;;;2.50;99.90;;;;;;5029666;28;20186;-89
2023/03/11 02:17:02;;;;;;;9.20;3.57;;;2.40;99.90;;;;;;5019923;28;20206;-89
2023/03/11 02:23:17;;;;;;;10.93;4.43;;;2.50;99.90;;;;;;5017369;28;20240;-91
2023/03/11 02:26:05;;;;;;;8.00;3.80;;;2.60;99.90;;;;;;5014150;28;20233;-92
2023/03/11 02:28:32;;;;;;;8.10;4.10;;;2.70;99.90;;;;;;5015101;28;20229;-89
2023/03/11 02:30:57;;;;;;;9.40;3.67;;;2.90;99.90;;;;;;5015471;28;20603;-91
2023/03/11 02:33:30;;;;;;;8.13;3.43;;;2.80;99.90;;;;;;5023625;28;20178;-91
2023/03/11 02:35:56;;;;;;;8.67;3.70;;;2.90;99.90;;;;;;5017201;28;20240;-90
2023/03/11 02:38:23;;;;;;;9.33;4.07;;;2.90;99.90;;;;;;5014936;28;20324;-90
2023/03/11 02:41:02;;;;;;;12.13;4.50;;;2.90;99.90;;;;;;5014957;28;20705;-89
2023/03/11 02:43:43;;;;;;;10.27;4.33;;;2.90;99.90;;;;;;5017683;28;20185;-88
2023/03/11 02:46:10;;;;;;;6.47;3.27;;;2.80;99.90;;;;;;5024810;28;20174;-89
2023/03/11 02:48:37;;;;;;;10.67;4.00;;;2.60;99.90;;;;;;5016449;28;20269;-88
2023/03/11 02:51:03;;;;;;;10.10;4.33;;;2.40;99.90;;;;;;5018959;28;20242;-87
2023/03/11 02:53:36;;;;;;;9.10;4.00;;;2.60;99.90;;;;;;5031271;28;20166;-87
2023/03/11 02:56:02;;;;;;;8.87;3.63;;;2.60;99.90;;;;;;5032188;28;20328;-90
2023/03/11 02:58:27;;;;;;;13.67;4.20;;;2.50;99.90;;;;;;5028341;28;20198;-89
2023/03/11 03:00:56;;;;;;;8.80;3.47;;;2.40;99.90;;;;;;5017666;28;20190;-89
2023/03/11 03:03:36;;;;;;;8.77;3.93;;;2.30;99.90;;;;;;5014310;28;20174;-88
2023/03/11 03:06:04;;;;;;;10.07;3.67;;;2.60;99.90;;;;;;5013044;28;20205;-89
2023/03/11 03:08:40;;;;;;;10.33;3.80;;;2.70;99.90;;;;;;5012822;28;20170;-89
2023/03/11 03:11:08;;;;;;;10.83;4.70;;;2.60;99.90;;;;;;5013745;28;20248;-89
2023/03/11 03:13:37;;;;;;;9.20;3.77;;;2.70;99.90;;;;;;5017285;28;20650;-90
2023/03/11 03:16:03;;;;;;;8.23;4.07;;;2.60;99.90;;;;;;5016503;28;20233;-90
2023/03/11 03:18:28;;;;;;;9.37;4.23;;;2.70;99.90;;;;;;5016888;28;20221;-90
2023/03/11 03:20:54;;;;;;;14.47;4.80;;;2.70;99.90;;;;;;5015743;28;20178;-89
2023/03/11 03:23:20;;;;;;;9.53;4.30;;;2.60;99.90;;;;;;5022946;28;20210;-89
2023/03/11 03:25:47;;;;;;;9.17;4.43;;;2.50;99.90;;;;;;5034516;28;20171;-88
2023/03/11 03:28:13;;;;;;;13.83;4.47;;;2.60;99.90;;;;;;5026699;28;20196;-89
2023/03/11 03:30:40;;;;;;;9.00;4.30;;;2.60;99.90;;;;;;5026685;28;20338;-89
2023/03/11 03:33:09;;;;;;;9.30;4.60;;;2.70;99.90;;;;;;5017679;28;20719;-88
2023/03/11 03:35:39;;;;;;;8.27;3.80;;;2.80;99.90;;;;;;5028396;28;20257;-91
2023/03/11 03:38:05;;;;;;;9.73;3.97;;;2.90;99.90;;;;;;5022082;28;20178;-89
2023/03/11 03:40:33;;;;;;;10.07;3.83;;;3.10;99.90;;;;;;5025660;28;20309;-88
2023/03/11 03:43:00;;;;;;;7.37;4.00;;;3.20;99.90;;;;;;5017702;28;20167;-89
2023/03/11 03:45:26;;;;;;;8.27;4.00;;;3.00;99.90;;;;;;5016895;28;20175;-89
2023/03/11 03:47:52;;;;;;;12.10;3.70;;;2.90;99.90;;;;;;5017461;28;20212;-89
2023/03/11 03:50:18;;;;;;;10.73;3.83;;;2.70;99.90;;;;;;5024083;28;20171;-88
2023/03/11 03:52:43;;;;;;;8.43;4.03;;;2.60;99.90;;;;;;5024522;28;20733;-89
2023/03/11 03:55:09;;;;;;;10.50;3.97;;;2.60;99.90;;;;;;5025993;28;20170;-88
2023/03/11 03:57:35;;;;;;;9.83;3.43;;;2.50;99.90;;;;;;5019575;28;20708;-89
2023/03/11 04:00:04;;;;;;;11.70;3.93;;;2.50;99.90;;;;;;5015877;28;20195;-88
2023/03/11 04:02:30;;;;;;;8.30;3.70;;;2.60;99.90;;;;;;5015600;28;20182;-89
2023/03/11 04:04:56;;;;;;;12.33;4.20;;;2.70;99.90;;;;;;5015864;28;20178;-88
2023/03/11 04:07:22;;;;;;;12.57;4.00;;;2.60;99.90;;;;;;5017554;28;20244;-88
2023/03/11 04:09:49;;;;;;;8.80;3.73;;;2.60;99.90;;;;;;5016382;28;20174;-89
2023/03/11 04:12:16;;;;;;;9.37;4.20;;;2.60;99.90;;;;;;5016554;28;20174;-89
2023/03/11 04:14:43;;;;;;;7.70;4.00;;;2.60;99.90;;;;;;5017517;28;20171;-89
2023/03/11 04:17:12;;;;;;;9.43;3.73;;;2.60;99.90;;;;;;5035452;28;20210;-90
2023/03/11 04:19:38;;;;;;;11.47;4.10;;;2.70;99.90;;;;;;5030206;28;20181;-87
2023/03/11 04:22:04;;;;;;;9.07;4.13;;;2.80;99.90;;;;;;5024249;28;20194;-89
2023/03/11 04:24:33;;;;;;;12.50;4.83;;;2.80;99.90;;;;;;5015817;28;20174;-89
2023/03/11 04:26:58;;;;;;;7.57;3.90;;;2.90;99.90;;;;;;5015020;28;20181;-89
2023/03/11 04:29:24;;;;;;;11.80;4.10;;;3.00;99.90;;;;;;5015781;28;20181;-89
2023/03/11 04:31:50;;;;;;;7.47;4.27;;;2.90;99.90;;;;;;5014875;28;20250;-89
2023/03/11 04:34:17;;;;;;;9.40;3.87;;;3.00;99.90;;;;;;5014478;28;20647;-89
2023/03/11 04:36:43;;;;;;;11.43;4.53;;;2.90;99.90;;;;;;5015146;28;20218;-90
2023/03/11 04:39:08;;;;;;;12.17;4.30;;;2.70;99.90;;;;;;5014946;28;20178;-90
2023/03/11 04:41:34;;;;;;;12.87;3.80;;;2.70;99.90;;;;;;5015378;28;20174;-90
2023/03/11 04:44:00;;;;;;;12.63;4.30;;;2.60;99.90;;;;;;5015265;28;20609;-91
2023/03/11 04:46:25;;;;;;;12.50;3.80;;;2.60;99.90;;;;;;5015918;28;20175;-89
2023/03/11 04:48:51;;;;;;;8.03;3.90;;;2.60;99.90;;;;;;5015050;28;20182;-89
2023/03/11 04:51:17;;;;;;;10.47;4.10;;;2.70;99.90;;;;;;5026494;28;20162;-89
2023/03/11 04:53:45;;;;;;;8.33;4.73;;;2.80;99.90;;;;;;5027612;28;20174;-89
2023/03/11 04:56:10;;;;;;;7.13;4.57;;;3.00;99.90;;;;;;5019315;28;20361;-89
2023/03/11 04:58:36;;;;;;;9.07;4.50;;;2.80;99.90;;;;;;5015823;28;20642;-89
2023/03/11 05:01:02;;;;;;;8.67;3.70;;;2.60;99.90;;;;;;5016588;28;20209;-89
2023/03/11 05:03:27;;;;;;;9.47;3.80;;;2.40;99.90;;;;;;5021293;28;20182;-90
2023/03/11 05:05:55;;;;;;;13.40;4.70;;;2.40;99.90;;;;;;5014430;28;20178;-88
2023/03/11 05:08:22;;;;;;;13.60;4.40;;;2.40;99.90;;;;;;5017777;28;20167;-89
2023/03/11 05:10:49;;;;;;;10.03;4.50;;;2.50;99.90;;;;;;5014607;28;20175;-90
2023/03/11 05:13:15;;;;;;;10.13;3.97;;;2.40;99.90;;;;;;5019620;28;20190;-88
2023/03/11 05:15:43;;;;;;;11.27;3.90;;;2.50;99.90;;;;;;5015921;28;20305;-89
2023/03/11 05:18:09;;;;;;;9.73;4.17;;;2.40;99.90;;;;;;5016680;28;20308;-88
2023/03/11 05:20:34;;;;;;;10.30;4.50;;;2.40;99.90;;;;;;5021831;28;20300;-88
2023/03/11 05:23:02;;;;;;;7.97;4.73;;;2.40;99.90;;;;;;5030852;28;20231;-89
2023/03/11 05:25:28;;;;;;;10.83;4.57;;;2.40;99.90;;;;;;5020367;28;20174;-89
2023/03/11 05:27:53;;;;;;;9.43;4.00;;;2.40;99.90;;;;;;5016808;28;20224;-89
2023/03/11 05:30:20;;;;;;;8.87;4.53;;;2.40;99.90;;;;;;5016820;28;20181;-91
2023/03/11 05:32:46;;;;;;;13.37;5.30;;;2.50;99.90;;;;;;5014778;28;20618;-89
2023/03/11 05:35:12;;;;;;;8.33;4.40;;;2.40;99.90;;;;;;5015989;28;20225;-88
2023/03/11 05:37:38;;;;;;;9.23;4.90;;;2.30;99.90;;;;;;5031478;28;20200;-87
2023/03/11 05:40:06;;;;;;;9.23;5.10;;;2.40;99.90;;;;;;5033910;28;20154;-89
2023/03/11 05:42:33;;;;;;;13.13;4.90;;;2.40;99.90;;;;;;5036917;28;20166;-89
2023/03/11 05:45:03;;;;;;;7.97;4.70;;;2.40;99.90;;;;;;5028949;28;20196;-89
2023/03/11 05:47:31;;;;;;;9.93;4.33;;;2.40;99.90;;;;;;5033590;28;20177;-89
2023/03/11 05:50:00;;;;;;;11.93;5.27;;;2.50;99.90;;;;;;5028744;28;20193;-90
2023/03/11 05:52:31;;;;;;;9.30;4.73;;;2.40;99.90;;;;;;5018052;28;20175;-90
2023/03/11 05:55:00;;;;;;;8.93;4.63;;;2.40;99.90;;;;;;5015188;28;20178;-88
2023/03/11 05:57:26;;;;;;;11.57;4.63;;;2.50;99.90;;;;;;5013831;28;20185;-88
2023/03/11 05:59:51;;;;;;;9.00;4.20;;;2.80;99.90;;;;;;5013316;28;20194;-89
2023/03/11 06:02:17;;;;;;;8.30;4.50;;;2.70;99.90;;;;;;5013584;28;20186;-89
2023/03/11 06:04:43;;;;;;;7.33;4.80;;;2.70;99.90;;;;;;5013435;28;20183;-89
2023/03/11 06:07:11;;;;;;;9.37;4.40;;;2.80;99.90;;;;;;5025571;28;20205;-89
2023/03/11 06:09:37;;;;;;;8.13;4.50;;;2.80;99.90;;;;;;5014573;28;20171;-89
2023/03/11 06:12:03;;;;;;;12.83;5.07;;;2.70;99.90;;;;;;5016127;28;20170;-90
2023/03/11 06:14:31;;;;;;;10.23;4.83;;;2.80;99.90;;;;;;5013286;28;20221;-91
2023/03/11 06:16:57;;;;;;;9.70;5.00;;;2.70;99.90;;;;;;5013316;28;20210;-90
2023/03/11 06:19:24;;;;;;;14.90;5.40;;;2.90;99.90;;;;;;5014212;28;20201;-90
2023/03/11 06:21:51;;;;;;;10.40;5.10;;;2.70;99.90;;;;;;5013930;28;20185;-90
2023/03/11 06:24:17;;;;;;;8.13;5.10;;;2.80;99.90;;;;;;5016023;28;20170;-89
2023/03/11 06:26:43;;;;;;;12.57;5.47;;;2.70;99.90;;;;;;5013244;28;20178;-91
2023/03/11 06:29:12;;;;;;;9.97;4.90;;;2.70;99.90;;;;;;5014133;28;20162;-91
2023/03/11 06:31:39;;;;;;;8.83;5.03;;;2.70;99.90;;;;;;5013209;28;20174;-92
2023/03/11 06:34:05;;;;;;;9.03;5.50;;;2.60;99.90;;;;;;5013780;28;20190;-88
2023/03/11 06:36:31;;;;;;;10.23;5.00;;;2.60;99.90;;;;;;5015196;28;20630;-89
2023/03/11 06:38:57;;;;;;;13.10;5.27;;;2.70;99.90;;;;;;5013963;28;20178;-88
2023/03/11 06:41:25;;;;;;;8.37;4.77;;;2.80;99.90;;;;;;5013333;28;20277;-89
2023/03/11 06:43:50;;;;;;;10.10;5.10;;;2.90;99.90;;;;;;5014335;28;20532;-91
2023/03/11 06:46:20;;;;;;;12.03;5.60;;;3.00;99.90;;;;;;5019271;28;20169;-86
2023/03/11 06:48:51;;;;;;;6.93;4.67;;;2.90;99.90;;;;;;5027360;28;20232;-87
2023/03/11 06:51:17;;;;;;;11.23;6.23;;;3.00;99.90;;;;;;5029851;28;20184;-88
2023/03/11 06:53:48;;;;;;;8.40;4.90;;;3.10;99.90;;;;;;5029855;28;20246;-87
2023/03/11 06:56:16;;;;;;;10.67;5.63;;;2.90;99.90;;;;;;5034400;28;20194;-87
2023/03/11 06:58:42;;;;;;;10.97;5.80;;;3.00;99.90;;;;;;5022686;28;20167;-88
2023/03/11 07:01:14;;;;;;;9.23;5.10;;;3.10;99.90;;;;;;5017614;28;20198;-89
2023/03/11 07:03:41;;;;;;;11.07;4.33;;;3.10;99.90;;;;;;5017291;28;20646;-90
2023/03/11 07:06:15;;;;;;;8.80;5.10;;;3.40;99.90;;;;;;5017419;28;20178;-88
2023/03/11 07:08:42;;;;;;;10.03;5.07;;;3.40;99.90;;;;;;5016427;28;20544;-90
2023/03/11 07:11:12;;;;;;;12.40;5.63;;;3.40;99.90;;;;;;5018502;28;20178;-87
2023/03/11 07:13:40;;;;;;;8.50;5.30;;;3.50;99.90;;;;;;5024942;28;20285;-88
2023/03/11 07:16:14;;;;;;;9.73;5.17;;;3.70;99.90;;;;;;5017869;28;20217;-89
2023/03/11 07:18:44;;;;;;;9.87;5.40;;;3.80;99.90;;;;;;5017070;28;20174;-90
2023/03/11 07:21:13;;;;;;;10.53;5.13;;;3.90;99.90;;;;;;5026380;28;20217;-87
2023/03/11 07:23:40;;;;;;;9.50;5.23;;;3.90;99.90;;;;;;5036397;28;20174;-86
2023/03/11 07:26:08;;;;;;;15.13;9.00;;;3.80;99.90;;;;;;5032452;28;20171;-89
2023/03/11 07:28:34;;;;;;;11.53;7.20;;;3.90;99.90;;;;;;5021839;28;20185;-89
2023/03/11 07:31:06;;;;;;;11.40;6.63;;;4.00;99.90;;;;;;5017670;28;20205;-89
2023/03/11 07:33:33;;;;;;;7.87;4.63;;;3.90;99.90;;;;;;5018803;28;20189;-89
2023/03/11 07:35:58;;;;;;;11.10;5.10;;;4.00;99.90;;;;;;5021940;28;20209;-87
2023/03/11 07:38:27;;;;;;;12.43;5.00;;;4.00;99.90;;;;;;5004014;28;20178;-88
2023/03/11 07:41:00;;;;;;;10.43;4.80;;;4.20;99.90;;;;;;5021705;28;20266;-89
2023/03/11 07:43:27;;;;;;;10.80;5.53;;;4.40;99.90;;;;;;5020338;28;20177;-88
2023/03/11 07:46:05;;;;;;;12.20;5.53;;;4.40;99.90;;;;;;5022090;28;20178;-87
2023/03/11 07:48:31;;;;;;;6.43;4.87;;;4.60;99.90;;;;;;5019972;28;20185;-88
2023/03/11 07:51:32;;;;;;;11.50;5.13;;;4.70;99.90;;;;;;5020562;28;20167;-90
2023/03/11 07:54:00;;;;;;;8.73;4.73;;;4.60;99.90;;;;;;5021008;28;20208;-89
2023/03/11 07:56:29;;;;;;;7.53;5.00;;;4.60;99.90;;;;;;5028498;28;20217;-87
2023/03/11 07:58:57;;;;;;;12.67;5.30;;;4.60;99.90;;;;;;5035622;28;20162;-88
2023/03/11 08:01:25;;;;;;;10.07;4.60;;;4.70;99.90;;;;;;5031796;28;20202;-91
2023/03/11 08:03:57;;;;;;;8.37;5.37;;;4.60;99.90;;;;;;5023576;28;20174;-88
2023/03/11 08:06:30;;;;;;;8.00;5.17;;;4.70;99.90;;;;;;5022823;28;20178;-89
2023/03/11 08:08:59;;;;;;;11.67;5.07;;;4.70;99.90;;;;;;5021116;28;20197;-89
2023/03/11 08:11:30;;;;;;;8.87;5.77;;;4.70;99.90;;;;;;5022359;28;20173;-89
2023/03/11 08:13:56;;;;;;;13.33;5.90;;;4.70;99.90;;;;;;5021135;28;20237;-89
2023/03/11 08:16:24;;;;;;;11.70;5.50;;;4.70;99.90;;;;;;5020027;28;20198;-88
2023/03/11 08:18:51;;;;;;;12.87;6.80;;;4.80;99.90;;;;;;5004851;28;20553;-89
2023/03/11 08:21:21;;;;;;;11.90;8.00;;;5.00;99.90;;;;;;5021019;28;20659;-88
2023/03/11 08:23:48;;;;;;;11.03;7.30;;;4.90;99.90;;;;;;5021488;28;20201;-87
2023/03/11 08:26:17;;;;;;;14.80;8.13;;;5.20;99.90;;;;;;5022108;28;20181;-88
2023/03/11 08:28:51;;;;;;;13.30;7.30;;;5.20;99.90;;;;;;5024103;28;20205;-87
2023/03/11 08:31:21;;;;;;;17.03;7.90;;;5.40;99.90;;;;;;5021154;28;20189;-89
2023/03/11 08:33:51;;;;;;;13.03;7.60;;;5.70;99.90;;;;;;5019923;28;20280;-88
2023/03/11 08:36:17;;;;;;;15.73;6.57;;;5.60;99.90;;;;;;5031663;28;20225;-89
2023/03/11 08:38:45;;;;;;;11.80;5.73;;;5.70;99.90;;;;;;5038108;28;20158;-91
2023/03/11 08:41:23;;;;;;;10.97;5.70;;;5.90;99.90;;;;;;5037601;28;20178;-88
2023/03/11 08:43:51;;;;;;;10.20;5.43;;;6.10;99.90;;;;;;5023928;28;20269;-88
2023/03/11 08:46:32;;;;;;;13.40;5.67;;;6.10;99.90;;;;;;5018166;28;20177;-87
2023/03/11 08:48:59;;;;;;;12.57;5.13;;;6.30;99.90;;;;;;5015778;28;20240;-88
2023/03/11 08:51:26;;;;;;;11.40;5.73;;;6.40;99.90;;;;;;5020158;28;20349;-88
2023/03/11 08:53:52;;;;;;;10.13;5.47;;;6.50;99.90;;;;;;5000576;28;20182;-86
2023/03/11 08:56:18;;;;;;;10.43;5.43;;;6.40;99.90;;;;;;5014862;28;20202;-87
2023/03/11 08:58:45;;;;;;;9.20;5.20;;;6.40;99.90;;;;;;5016557;28;20174;-85
2023/03/11 09:01:12;;;;;;;12.83;5.30;;;6.60;99.90;;;;;;5014970;28;20225;-84
2023/03/11 09:03:39;;;;;;;10.60;5.00;;;6.80;99.90;;;;;;5013286;28;20277;-86
2023/03/11 09:06:08;;;;;;;9.30;5.07;;;6.90;99.90;;;;;;5014750;28;20175;-84
2023/03/11 09:08:34;;;;;;;9.43;5.47;;;7.00;99.90;;;;;;5030977;28;20170;-82
2023/03/11 09:11:00;;;;;;;14.10;5.10;;;7.00;99.90;;;;;;5030722;28;20178;-88
2023/03/11 09:13:26;;;;;;;12.47;5.10;;;7.20;99.90;;;;;;5034381;28;20174;-85
2023/03/11 09:15:53;;;;;;;10.47;5.00;;;7.30;99.90;;;;;;5031746;28;20224;-85
2023/03/11 09:18:22;;;;;;;8.23;4.27;;;7.20;99.90;;;;;;5022002;28;20194;-85
2023/03/11 09:20:48;;;;;;;14.77;5.37;;;7.00;99.90;;;;;;5019140;28;20225;-84
2023/03/11 09:23:16;;;;;;;9.17;4.03;;;7.00;99.90;;;;;;5016553;28;20575;-84
2023/03/11 09:25:42;;;;;;;9.87;5.03;;;7.20;99.90;;;;;;5017620;28;20163;-85
2023/03/11 09:28:08;;;;;;;8.60;4.47;;;7.20;99.90;;;;;;5024680;28;20208;-87
2023/03/11 09:30:34;;;;;;;6.87;3.83;;;7.30;99.90;;;;;;5015924;28;20193;-87
2023/03/11 09:33:00;;;;;;;7.93;3.43;;;7.70;99.90;;;;;;5014707;28;20281;-89
2023/03/11 09:35:26;;;;;;;9.67;3.37;;;7.60;99.90;;;;;;5013900;28;20233;-89
2023/03/11 09:37:51;;;;;;;8.73;3.10;;;7.50;99.90;;;;;;5016421;28;20179;-87
2023/03/11 09:40:21;;;;;;;8.40;3.60;;;7.60;99.90;;;;;;4988518;28;20195;-86
2023/03/11 09:43:28;;;;;;;9.73;3.80;;;7.80;99.90;;;;;;5013592;28;20236;-87
2023/03/11 09:46:43;;;;;;;5.87;3.07;;;7.80;99.90;;;;;;4959731;28;20187;-85
2023/03/11 09:49:31;;;;;;;5.60;2.83;;;7.90;99.90;;;;;;4971002;28;20202;-85
2023/03/11 09:52:14;;;;;;;7.47;2.80;;;7.70;99.90;;;;;;5012369;28;20183;-88
2023/03/11 09:54:51;;;;;;;7.43;2.67;;;7.80;99.90;;;;;;5005864;28;20177;-88
2023/03/11 09:57:33;;;;;;;7.20;2.47;;;8.00;99.90;;;;;;5009619;28;20233;-88
2023/03/11 10:00:02;;;;;;;7.70;2.77;;;8.30;99.90;;;;;;5014702;28;20198;-86
2023/03/11 10:02:30;;;;;;;7.83;2.33;;;8.50;99.90;;;;;;5015367;28;20186;-86
2023/03/11 10:05:27;;;;;;;6.07;2.20;;;8.40;99.90;;;;;;5032652;28;20182;-88
2023/03/11 10:08:10;;;;;;;8.47;2.50;;;8.30;99.90;;;;;;5010436;28;20630;-88
2023/03/11 10:10:44;;;;;;;6.93;2.00;;;7.90;99.90;;;;;;5019621;28;20189;-88
2023/03/11 10:13:37;;;;;;;4.27;2.33;;;7.40;99.90;;;;;;5021292;28;20197;-86
2023/03/11 10:16:18;;;;;;;8.57;2.10;;;7.30;99.90;;;;;;5007988;28;20257;-88
2023/03/11 10:19:01;;;;;;;6.30;2.40;;;7.70;99.90;;;;;;5032501;28;20251;-89
2023/03/11 10:21:52;;;;;;;8.03;2.33;;;7.90;99.90;;;;;;5018487;28;20182;-87
2023/03/11 10:24:56;;;;;;;10.33;3.07;;;7.90;99.90;;;;;;5018918;28;20175;-86
2023/03/11 10:27:50;;;;;;;6.90;2.90;;;7.80;99.90;;;;;;5019074;28;20194;-87
2023/03/11 10:30:35;;;;;;;4.87;2.63;;;7.90;99.90;;;;;;5018707;28;20170;-88
2023/03/11 10:33:17;;;;;;;8.37;2.10;;;7.80;99.90;;;;;;5018421;28;20619;-87
2023/03/11 10:35:48;;;;;;;9.20;2.80;;;7.80;99.90;;;;;;5015685;28;20210;-87
2023/03/11 10:38:17;;;;;;;5.57;2.27;;;7.60;99.90;;;;;;5014751;28;20179;-86
2023/03/11 10:40:45;;;;;;;7.17;2.57;;;7.30;99.90;;;;;;5016166;28;20647;-89
2023/03/11 10:43:29;;;;;;;4.63;2.10;;;7.20;99.90;;;;;;5018438;28;20253;-86
2023/03/11 10:45:54;;;;;;;4.53;2.10;;;6.90;99.90;;;;;;5020487;28;20205;-85
2023/03/11 10:48:21;;;;;;;6.23;2.47;;;6.80;99.90;;;;;;5018056;28;20174;-86
2023/03/11 10:51:02;;;;;;;7.70;2.50;;;7.30;99.90;;;;;;5017692;28;20200;-86
2023/03/11 10:53:28;;;;;;;6.43;2.47;;;7.70;99.90;;;;;;5019461;28;20174;-90
2023/03/11 10:55:56;;;;;;;6.63;2.10;;;8.00;99.90;;;;;;5018647;28;20194;-87
2023/03/11 10:58:31;;;;;;;6.47;2.43;;;8.30;99.90;;;;;;5017951;28;20696;-86
2023/03/11 11:01:13;;;;;;;7.70;2.63;;;8.70;99.90;;;;;;5020114;28;20236;-87
2023/03/11 11:03:42;;;;;;;4.00;2.03;;;8.60;99.90;;;;;;5024821;28;20246;-88
2023/03/11 11:06:18;;;;;;;7.07;2.60;;;8.60;99.90;;;;;;5022249;28;20189;-87
2023/03/11 11:08:45;;;;;;;7.20;2.60;;;8.50;99.90;;;;;;5018280;28;20173;-89
2023/03/11 11:11:22;;;;;;;6.07;2.13;;;8.20;99.90;;;;;;5016152;28;20178;-89
2023/03/11 11:13:59;;;;;;;7.63;2.27;;;8.40;99.90;;;;;;5016704;28;20190;-85
2023/03/11 11:16:26;;;;;;;6.27;2.20;;;8.70;99.90;;;;;;5015909;28;20217;-87
2023/03/11 11:19:10;;;;;;;6.47;2.07;;;8.40;99.90;;;;;;5016317;28;20216;-87
2023/03/11 11:21:39;;;;;;;4.43;1.97;;;8.30;99.90;;;;;;5025016;28;20177;-87
2023/03/11 11:24:20;;;;;;;4.33;1.90;;;8.50;99.90;;;;;;5018240;28;20201;-87
2023/03/11 11:27:10;;;;;;;9.73;2.17;;;8.70;99.90;;;;;;5017861;28;20221;-86
2023/03/11 11:29:37;;;;;;;6.57;2.30;;;9.00;99.90;;;;;;5031764;28;20630;-86
2023/03/11 11:32:22;;;;;;;8.43;2.30;;;9.30;99.90;;;;;;5014773;28;20615;-89
2023/03/11 11:35:04;;;;;;;6.70;2.37;;;9.30;99.90;;;;;;5015528;28;20170;-86
2023/03/11 11:37:32;;;;;;;7.50;2.27;;;9.10;99.90;;;;;;5017715;28;20210;-84
2023/03/11 11:40:11;;;;;;;5.50;2.30;;;9.10;99.90;;;;;;5015759;28;20201;-84
2023/03/11 11:42:44;;;;;;;6.63;2.47;;;9.20;99.90;;;;;;5016090;28;20174;-86
2023/03/11 11:45:26;;;;;;;6.03;2.37;;;9.40;99.90;;;;;;5021776;28;20186;-85
2023/03/11 11:47:56;;;;;;;10.07;2.40;;;9.70;99.90;;;;;;5021278;28;20588;-86
2023/03/11 11:50:35;;;;;;;6.73;2.60;;;9.60;99.90;;;;;;5018391;28;20171;-85
2023/03/11 11:53:20;;;;;;;5.83;2.47;;;9.50;99.90;;;;;;5003210;28;20178;-87
2023/03/11 11:55:52;;;;;;;11.57;2.70;;;9.20;99.90;;;;;;5019160;28;20225;-87
2023/03/11 11:58:22;;;;;;;8.17;2.30;;;9.10;99.90;;;;;;5033569;28;20623;-86
2023/03/11 12:00:48;;;;;;;7.83;2.27;;;8.90;99.90;;;;;;5016187;28;20206;-88
2023/03/11 12:03:44;;;;;;;8.40;2.57;;;8.70;99.90;;;;;;5015033;28;20335;-85
2023/03/11 12:06:36;;;;;;;7.33;2.20;;;8.70;99.90;;;;;;5017578;28;20193;-86
2023/03/11 12:09:43;;;;;;;6.90;2.30;;;8.40;99.90;;;;;;5016114;28;20175;-87
2023/03/11 12:12:37;;;;;;;5.53;1.83;;;8.50;99.90;;;;;;5014446;28;20174;-88
2023/03/11 12:15:41;;;;;;;5.50;2.17;;;8.90;99.90;;;;;;5031883;28;20181;-86
2023/03/11 12:18:16;;;;;;;11.60;2.90;;;9.30;99.90;;;;;;4992145;28;20203;-86
2023/03/11 12:20:48;;;;;;;6.33;2.60;;;9.60;99.90;;;;;;5011278;28;20209;-89
2023/03/11 12:23:27;;;;;;;4.97;2.07;;;9.70;99.90;;;;;;5026358;28;20182;-87
2023/03/11 12:26:22;;;;;;;5.00;2.00;;;9.90;99.90;;;;;;5033115;28;20193;-85
2023/03/11 12:28:52;;;;;;;6.77;2.47;;;9.60;99.90;;;;;;5037359;28;20174;-87
2023/03/11 12:31:19;;;;;;;8.47;2.07;;;9.50;99.90;;;;;;5023358;28;20542;-86
2023/03/11 12:33:50;;;;;;;7.90;2.40;;;9.50;99.90;;;;;;5019528;28;20293;-87
2023/03/11 12:36:31;;;;;;;8.47;2.30;;;9.80;99.90;;;;;;5001581;28;20214;-85
2023/03/11 12:38:58;;;;;;;8.13;3.03;;;9.70;99.90;;;;;;5016370;28;20289;-88
2023/03/11 12:41:38;;;;;;;7.10;2.40;;;9.80;99.90;;;;;;5014765;28;20182;-89
2023/03/11 12:44:30;;;;;;;4.60;2.10;;;9.70;99.90;;;;;;5020076;28;20182;-88
2023/03/11 12:47:01;;;;;;;6.47;2.90;;;9.80;99.90;;;;;;5024326;28;20240;-87
2023/03/11 12:49:33;;;;;;;4.70;2.27;;;10.00;99.90;;;;;;5018003;28;20718;-88
2023/03/11 12:52:10;;;;;;;7.50;2.63;;;10.00;99.90;;;;;;5018490;28;20184;-90
2023/03/11 12:54:41;;;;;;;6.70;2.00;;;9.90;99.90;;;;;;5015127;28;20181;-86
2023/03/11 12:57:27;;;;;;;6.37;2.27;;;9.90;99.90;;;;;;5013694;28;20264;-87
2023/03/11 13:00:16;;;;;;;5.23;2.20;;;10.10;99.90;;;;;;5017936;28;20190;-86
2023/03/11 13:03:04;;;;;;;5.67;2.10;;;10.20;99.90;;;;;;5017584;28;20269;-86
2023/03/11 13:05:54;;;;;;;6.50;1.73;;;10.00;99.90;;;;;;5019097;28;20170;-87
2023/03/11 13:08:24;;;;;;;4.87;2.27;;;9.90;99.90;;;;;;5019018;28;20189;-89
2023/03/11 13:10:55;;;;;;;5.53;2.87;;;9.80;99.90;;;;;;5018256;28;20189;-90
2023/03/11 13:13:30;;;;;;;4.77;1.93;;;9.70;99.90;;;;;;5017048;28;20197;-89
2023/03/11 13:16:17;;;;;;;4.90;2.03;;;10.00;99.90;;;;;;5017365;28;20189;-88